Terminal Aerodrome Forecast
Issued by NWS Bismarck, ND

Home | Current Version | Previous Version | Graphics & Text | Print | Product List | Glossary On
Versions: 1 2 3 4 5 6 7 8 9 10 11 12 13 14 15 16 17
000
FTUS43 KBIS 031120
TAFISN
TAF
KISN 031120Z 0312/0412 VRB05KT P6SM SKC
     FM031700 06007KT P6SM FEW050
     FM040000 10007KT P6SM SKC=

USA.gov is the U.S. government's official web portal to all federal, state and local government web resources and services.